Last 24 Hours

Pinon Hills

Hourly Data | America/Los_Angeles
as of 5/8/26 11:41 AM PDT
Date & Time Temp (°F) RH (%) Dew Pt (°F) Wind Dir (°) Wind Spd (mph) Wind Gust (mph) Pressure (mb) Barometric Press (inHg) Soil Temp (°F) Solar Rad (W/m2) Latest Rain (In) Daily Rain (In) Daily Min Temp (°F) Daily Max Temp (°F) Daily Max Wind (mph) Daily ETo (in)
5/8/26 - 1100 72.8 27 37.1 NNW | 337 5.5 13.8 1,011.0 29.82 68.3 858 0.00 0.00 54.2 74.5 16.9 0.074
5/8/26 - 1000 70.4 30 37.8 NNW | 341 4.5 11.6 1,011.6 29.84 68.1 710 0.00 0.00 54.2 71.7 16.9 0.050
5/8/26 - 0900 68.4 30 35.6 NNW | 332 3.9 9.2 1,012.3 29.86 68.2 519 0.00 0.00 54.2 69.7 16.9 0.031
5/8/26 - 0800 66.9 27 31.7 E | 90 2.6 5.9 1,012.4 29.87 68.6 301 0.00 0.00 54.2 68.5 16.9 0.017
5/8/26 - 0700 58.3 34 29.7 SW | 214 3.9 9.0 1,014.6 29.93 69.1 97 0.00 0.00 54.2 68.0 16.9 0.010
5/8/26 - 0600 56.7 31 26.2 SW | 220 3.6 11.2 1,014.7 29.93 69.6 2 0.00 0.00 54.2 68.0 16.9 0.007
5/8/26 - 0500 60.8 25 24.7 WSW | 240 2.9 11.2 1,013.2 29.89 70.1 0 0.00 0.00 56.1 68.0 16.9 0.006
5/8/26 - 0400 65.9 20 24.1 SW | 234 3.7 14.5 1,011.7 29.85 70.6 0 0.00 0.00 56.1 68.0 16.9 0.005
5/8/26 - 0300 61.3 25 25.2 WSW | 251 3.9 9.6 1,013.3 29.89 71.1 0 0.00 0.00 56.1 68.0 16.9 0.004
5/8/26 - 0200 64.7 24 27.1 SW | 225 6.2 16.9 1,012.6 29.87 71.6 0 0.00 0.00 58.0 68.0 16.9 0.003
5/8/26 - 0100 67.2 23 28.3 SW | 221 8.1 16.4 1,012.3 29.86 72.0 0 0.00 0.00 57.6 81.0 25.2 0.283
5/8/26 - 0000 67.0 25 30.2 SW | 230 6.2 16.0 1,012.5 29.87 72.5 0 0.00 0.00 57.6 81.0 25.2 0.279
5/7/26 - 2300 67.8 26 32.1 SW | 224 7.7 20.0 1,012.3 29.86 73.0 0 0.00 0.00 57.6 81.0 25.2 0.277
5/7/26 - 2200 68.3 27 33.4 WSW | 245 6.1 19.7 1,012.0 29.85 73.3 0 0.00 0.00 57.6 81.0 25.2 0.273
5/7/26 - 2100 69.1 28 34.3 WSW | 257 5.0 16.4 1,011.2 29.83 73.5 0 0.00 0.00 57.6 81.0 25.2 0.271
5/7/26 - 2000 71.4 28 36.3 W | 270 7.8 22.4 1,010.0 29.79 73.4 31 0.00 0.00 57.6 81.0 25.2 0.269
5/7/26 - 1900 74.6 25 36.5 WNW | 289 11.9 25.2 1,008.7 29.76 73.0 192 0.00 0.00 57.6 81.0 25.2 0.264
5/7/26 - 1800 77.0 24 37.7 WNW | 303 10.8 22.6 1,007.8 29.73 72.2 355 0.00 0.00 57.6 81.0 22.6 0.252
5/7/26 - 1700 79.6 16 29.4 NW | 311 7.2 20.0 1,007.1 29.71 71.0 583 0.00 0.00 57.6 81.0 20.0 0.236
5/7/26 - 1600 79.7 15 28.7 NNW | 330 5.1 16.9 1,007.4 29.72 69.7 795 0.00 0.00 57.6 81.0 16.9 0.216
5/7/26 - 1500 79.2 17 30.3 N | 349 5.2 15.8 1,008.3 29.75 68.4 918 0.00 0.00 57.6 80.8 15.8 0.191
5/7/26 - 1400 78.3 18 31.9 NNE | 12 5.1 13.2 1,009.2 29.77 67.4 986 0.00 0.00 57.6 80.0 15.6 0.163
5/7/26 - 1300 77.0 19 31.7 NE | 45 5.3 15.6 1,010.1 29.80 66.8 1,002 0.00 0.00 57.6 78.6 15.6 0.134
5/7/26 - 1200 75.8 22 34.3 N | 8 4.5 11.2 1,011.0 29.83 66.3 957 0.00 0.00 57.6 77.6 14.9 0.104
5/7/26 - 1100 74.1 25 36.0 N | 4 4.3 11.8 1,011.6 29.84 65.8 857 0.00 0.00 57.6 75.9 14.9 0.077
Max 79.7 34 37.8 - 11.9 25.2 1,014.7 29.93 73.5 1,002 0.00 0.00 58.0 81.0 25.2 0.283
Avg 70.1 25 31.6 - 5.6 15.0 1,011.2 29.83 70.1 366 0.00 - - - - -
Min 56.7 15 24.1 - 2.6 5.9 1,007.1 29.71 65.8 0 0.00 0.00 54.2 68.0 14.9 0.003
Total - - - - - - - - - - 0.00 - - - - -